Time;durP1;ratioP1;P1;durP2;ratioP2;P2;SDS_P1;SDS_P2;PMS_P1;PMS_P2;Temp;Humidity;BMP_temperature;BMP_pressure;BME280_temperature;BME280_humidity;BME280_pressure;Samples;Min_cycle;Max_cycle;Signal;HPM_P1;HPM_P2
2021/01/08 00:01:38;;;;;;;0.00;0.00;;;2.50;99.90;;;;;;5020515;28;20105;-88
2021/01/08 00:04:04;;;;;;;0.00;0.00;;;2.50;99.90;;;;;;4993053;28;20498;-88
2021/01/08 00:06:29;;;;;;;0.00;0.00;;;2.50;99.90;;;;;;4992878;28;20069;-88
2021/01/08 00:08:55;;;;;;;0.00;0.00;;;2.50;99.90;;;;;;4993101;28;20107;-91
2021/01/08 00:11:24;;;;;;;0.32;0.32;;;2.40;99.90;;;;;;5009082;28;20076;-88
2021/01/08 00:13:50;;;;;;;0.00;0.00;;;2.40;99.90;;;;;;4992938;28;20367;-88
2021/01/08 00:16:16;;;;;;;0.00;0.00;;;2.40;99.90;;;;;;5009279;28;20501;-88
2021/01/08 00:18:43;;;;;;;0.00;0.00;;;2.40;99.90;;;;;;4992968;28;20085;-88
2021/01/08 00:21:08;;;;;;;0.00;0.00;;;2.40;99.90;;;;;;4992442;28;20050;-90
2021/01/08 00:23:34;;;;;;;0.00;0.00;;;2.40;99.90;;;;;;4992591;28;20034;-87
2021/01/08 00:25:59;;;;;;;0.00;0.00;;;2.40;99.90;;;;;;4992754;28;20053;-87
2021/01/08 00:28:25;;;;;;;0.00;0.00;;;2.40;99.90;;;;;;4992789;28;20030;-88
2021/01/08 00:30:51;;;;;;;0.00;0.00;;;2.40;99.90;;;;;;4989299;28;20127;-87
2021/01/08 00:33:16;;;;;;;0.00;0.00;;;2.40;99.90;;;;;;5005349;28;20039;-87
2021/01/08 00:35:42;;;;;;;0.00;0.00;;;2.40;99.90;;;;;;5005348;28;20089;-88
2021/01/08 00:38:08;;;;;;;0.00;0.00;;;2.40;99.90;;;;;;4989422;28;20042;-88
2021/01/08 00:40:34;;;;;;;0.00;0.00;;;2.40;99.90;;;;;;5005717;28;20042;-88
2021/01/08 00:42:59;;;;;;;0.00;0.00;;;2.40;99.90;;;;;;5005318;28;20058;-87
2021/01/08 00:45:25;;;;;;;0.00;0.00;;;2.30;99.90;;;;;;4989193;28;20061;-87
2021/01/08 00:47:51;;;;;;;0.00;0.00;;;2.30;99.90;;;;;;4989165;28;20043;-87
2021/01/08 00:50:17;;;;;;;0.00;0.00;;;2.30;99.90;;;;;;4989311;28;20085;-87
2021/01/08 00:52:43;;;;;;;0.00;0.00;;;2.30;99.90;;;;;;5005108;28;20105;-88
2021/01/08 00:55:10;;;;;;;0.00;0.00;;;2.30;99.90;;;;;;4988898;28;20030;-88
2021/01/08 00:57:45;;;;;;;0.00;0.00;;;2.40;99.90;;;;;;5007726;28;20048;-87
2021/01/08 01:00:11;;;;;;;0.00;0.00;;;2.30;99.90;;;;;;4993049;28;20074;-87
2021/01/08 01:02:37;;;;;;;0.00;0.00;;;2.30;99.90;;;;;;5022924;28;20058;-88
2021/01/08 01:05:03;;;;;;;0.00;0.00;;;2.30;99.90;;;;;;5009206;28;20089;-87
2021/01/08 01:07:28;;;;;;;0.00;0.00;;;2.30;99.90;;;;;;5025441;28;20053;-87
2021/01/08 01:09:54;;;;;;;0.00;0.00;;;2.40;99.90;;;;;;5009736;28;20038;-87
2021/01/08 01:12:20;;;;;;;0.00;0.00;;;2.40;99.90;;;;;;5009151;28;20113;-87
2021/01/08 01:14:45;;;;;;;0.00;0.00;;;2.40;99.90;;;;;;5009128;28;20102;-87
2021/01/08 01:17:12;;;;;;;0.00;0.00;;;2.30;99.90;;;;;;5028410;28;20064;-88
2021/01/08 01:19:38;;;;;;;0.00;0.00;;;2.40;99.90;;;;;;5012390;28;20087;-88
2021/01/08 01:22:03;;;;;;;0.00;0.00;;;2.30;99.90;;;;;;5028349;28;20121;-89
2021/01/08 01:24:29;;;;;;;0.00;0.00;;;2.30;99.90;;;;;;5028511;28;20038;-87
2021/01/08 01:26:58;;;;;;;0.00;0.00;;;2.30;99.90;;;;;;5028500;28;20042;-87
2021/01/08 01:29:24;;;;;;;0.00;0.00;;;2.40;99.90;;;;;;5028157;28;20540;-88
2021/01/08 01:31:51;;;;;;;0.00;0.00;;;2.30;99.90;;;;;;5028118;28;20045;-87
2021/01/08 01:34:17;;;;;;;0.00;0.00;;;2.30;99.90;;;;;;5011858;28;20042;-87
2021/01/08 01:36:43;;;;;;;0.00;0.00;;;2.30;99.90;;;;;;5028274;28;20060;-88
2021/01/08 01:39:08;;;;;;;0.00;0.00;;;2.30;99.90;;;;;;5029568;28;20037;-87
2021/01/08 01:41:34;;;;;;;0.00;0.00;;;2.30;99.90;;;;;;5028237;28;20048;-87
2021/01/08 01:43:59;;;;;;;0.00;0.00;;;2.30;99.90;;;;;;5012289;28;20045;-88
2021/01/08 01:46:26;;;;;;;0.00;0.00;;;2.30;99.90;;;;;;5028142;28;20034;-88
2021/01/08 01:48:52;;;;;;;0.00;0.00;;;2.30;99.90;;;;;;5027722;28;20037;-88
2021/01/08 01:51:20;;;;;;;0.00;0.00;;;2.30;99.90;;;;;;5028197;28;20042;-87
2021/01/08 01:54:07;;;;;;;0.00;0.00;;;2.30;99.90;;;;;;5027668;28;20102;-86
2021/01/08 01:56:32;;;;;;;0.00;0.00;;;2.30;99.90;;;;;;4990783;28;20058;-88
2021/01/08 01:58:58;;;;;;;0.00;0.00;;;2.30;99.90;;;;;;4990941;28;20121;-88
2021/01/08 02:01:24;;;;;;;0.00;0.00;;;2.30;99.90;;;;;;4990378;28;20058;-88
2021/01/08 02:03:53;;;;;;;0.00;0.00;;;2.30;99.90;;;;;;4990664;28;20049;-88
2021/01/08 02:06:22;;;;;;;0.00;0.00;;;2.30;99.90;;;;;;5007030;28;20038;-88
2021/01/08 02:08:55;;;;;;;0.00;0.00;;;2.30;99.90;;;;;;4989606;28;20046;-88
2021/01/08 02:11:26;;;;;;;0.00;0.00;;;2.30;99.90;;;;;;4990629;28;20150;-88
2021/01/08 02:14:05;;;;;;;0.00;0.00;;;2.30;99.90;;;;;;4990565;28;20065;-88
2021/01/08 02:16:33;;;;;;;0.00;0.00;;;2.30;99.90;;;;;;4990210;28;20050;-88
2021/01/08 02:18:59;;;;;;;0.00;0.00;;;2.30;99.90;;;;;;4990474;28;20150;-87
2021/01/08 02:21:33;;;;;;;0.00;0.00;;;2.30;99.90;;;;;;4990494;28;20046;-88
2021/01/08 02:24:08;;;;;;;0.00;0.00;;;2.30;99.90;;;;;;5006301;28;20114;-87
2021/01/08 02:26:34;;;;;;;0.00;0.00;;;2.30;99.90;;;;;;4990456;28;20100;-87
2021/01/08 02:29:00;;;;;;;0.00;0.00;;;2.30;99.90;;;;;;4990164;28;20049;-88
2021/01/08 02:31:26;;;;;;;0.00;0.00;;;2.30;99.90;;;;;;5019927;28;20549;-88
2021/01/08 02:33:52;;;;;;;0.00;0.00;;;2.30;99.90;;;;;;5019201;28;20046;-88
2021/01/08 02:36:18;;;;;;;0.00;0.00;;;2.30;99.90;;;;;;5027006;28;20050;-87
2021/01/08 02:38:44;;;;;;;0.00;0.00;;;2.30;99.90;;;;;;5026963;28;20038;-87
2021/01/08 02:41:11;;;;;;;0.00;0.00;;;2.30;99.90;;;;;;5010666;28;20038;-89
2021/01/08 02:43:38;;;;;;;0.00;0.00;;;2.30;99.90;;;;;;5026714;28;20038;-88
2021/01/08 02:46:04;;;;;;;0.00;0.00;;;2.30;99.90;;;;;;5010445;28;20053;-88
2021/01/08 02:48:30;;;;;;;0.00;0.00;;;2.30;99.90;;;;;;5026734;28;20038;-88
2021/01/08 02:50:55;;;;;;;0.00;0.00;;;2.30;99.90;;;;;;5026866;28;20046;-88
2021/01/08 02:56:17;;;;;;;0.00;0.00;;;2.20;99.90;;;;;;4970478;28;20078;-88
2021/01/08 02:58:43;;;;;;;0.00;0.00;;;2.20;99.90;;;;;;4954368;28;20062;-88
2021/01/08 03:01:10;;;;;;;0.00;0.00;;;2.20;99.90;;;;;;4970137;28;20058;-87
2021/01/08 03:03:36;;;;;;;0.00;0.00;;;2.20;99.90;;;;;;4954430;28;20046;-88
2021/01/08 03:06:02;;;;;;;0.00;0.00;;;2.30;99.90;;;;;;4954253;28;20042;-87
2021/01/08 03:08:29;;;;;;;0.00;0.00;;;2.20;99.90;;;;;;4954269;28;20070;-88
2021/01/08 03:10:56;;;;;;;0.00;0.00;;;2.20;99.90;;;;;;4970085;28;20574;-88
2021/01/08 03:13:22;;;;;;;0.00;0.00;;;2.20;99.90;;;;;;4970206;28;20042;-87
2021/01/08 03:15:48;;;;;;;0.00;0.00;;;2.20;99.90;;;;;;4953953;28;20114;-88
2021/01/08 03:18:13;;;;;;;0.00;0.00;;;2.20;99.90;;;;;;4986337;28;20074;-88
2021/01/08 03:20:39;;;;;;;0.00;0.00;;;2.20;99.90;;;;;;4986251;28;20035;-88
2021/01/08 03:23:05;;;;;;;0.00;0.00;;;2.20;99.90;;;;;;4986111;28;20523;-88
2021/01/08 03:25:31;;;;;;;0.00;0.00;;;2.20;99.90;;;;;;4985846;28;20261;-88
2021/01/08 03:27:56;;;;;;;0.00;0.00;;;2.20;99.90;;;;;;4985985;28;20042;-87
2021/01/08 03:30:22;;;;;;;0.00;0.00;;;2.10;99.90;;;;;;4985922;28;20426;-88
2021/01/08 03:32:48;;;;;;;0.00;0.00;;;2.10;99.90;;;;;;4985710;28;20037;-88
2021/01/08 03:35:14;;;;;;;0.00;0.00;;;2.10;99.90;;;;;;5025901;28;20141;-88
2021/01/08 03:37:40;;;;;;;0.00;0.00;;;2.10;99.90;;;;;;5025992;28;20033;-88
2021/01/08 03:40:07;;;;;;;0.00;0.00;;;2.10;99.90;;;;;;5025886;28;20064;-88
2021/01/08 03:42:33;;;;;;;0.00;0.00;;;2.10;99.90;;;;;;5009277;28;20077;-87
2021/01/08 03:44:59;;;;;;;0.00;0.00;;;2.00;99.90;;;;;;5025783;28;20037;-88
2021/01/08 03:47:25;;;;;;;0.00;0.00;;;2.10;99.90;;;;;;5025668;28;20062;-87
2021/01/08 03:49:50;;;;;;;0.00;0.00;;;2.00;99.90;;;;;;5026034;28;20070;-87
2021/01/08 03:52:16;;;;;;;0.00;0.00;;;2.00;99.90;;;;;;5009098;28;20073;-88
2021/01/08 03:54:42;;;;;;;0.00;0.00;;;2.10;99.90;;;;;;5025380;28;20045;-88
2021/01/08 03:57:07;;;;;;;0.00;0.00;;;2.10;99.90;;;;;;5025618;28;20049;-87
2021/01/08 03:59:33;;;;;;;0.00;0.00;;;2.10;99.90;;;;;;5025534;28;20040;-88
2021/01/08 04:01:59;;;;;;;0.00;0.00;;;2.10;99.90;;;;;;5025311;28;20077;-88
2021/01/08 04:04:24;;;;;;;0.00;0.00;;;2.10;99.90;;;;;;5014545;28;20133;-88
2021/01/08 04:06:50;;;;;;;0.00;0.00;;;2.10;99.90;;;;;;5021772;28;20052;-88
2021/01/08 04:09:18;;;;;;;0.00;0.00;;;2.10;99.90;;;;;;5025271;28;20041;-88
2021/01/08 04:11:43;;;;;;;0.00;0.00;;;2.10;99.90;;;;;;5025342;28;20402;-88
2021/01/08 04:14:09;;;;;;;0.10;0.10;;;2.10;99.90;;;;;;5008865;28;20042;-88
2021/01/08 04:16:36;;;;;;;0.00;0.00;;;2.10;99.90;;;;;;5008904;28;20053;-88
2021/01/08 04:19:02;;;;;;;0.00;0.00;;;2.10;99.90;;;;;;5025080;28;20077;-88
2021/01/08 04:21:28;;;;;;;0.00;0.00;;;2.10;99.90;;;;;;5025002;28;20046;-87
2021/01/08 04:23:54;;;;;;;0.00;0.00;;;2.20;99.90;;;;;;5025106;28;20098;-88
2021/01/08 04:26:20;;;;;;;0.00;0.00;;;2.20;99.90;;;;;;5025386;28;20052;-88
2021/01/08 04:28:46;;;;;;;0.00;0.00;;;2.20;99.90;;;;;;5025213;28;20046;-88
2021/01/08 04:31:13;;;;;;;0.00;0.00;;;2.20;99.90;;;;;;5024403;28;20057;-88
2021/01/08 04:33:40;;;;;;;0.00;0.00;;;2.20;99.90;;;;;;5024947;28;20463;-87
2021/01/08 04:36:08;;;;;;;0.00;0.00;;;2.20;99.90;;;;;;5024955;28;20140;-88
2021/01/08 04:38:34;;;;;;;0.00;0.00;;;2.20;99.90;;;;;;5025107;28;20034;-88
2021/01/08 04:41:00;;;;;;;0.00;0.00;;;2.20;99.90;;;;;;5024697;28;20061;-87
2021/01/08 04:43:26;;;;;;;0.00;0.00;;;2.20;99.90;;;;;;5024881;28;20049;-87
2021/01/08 04:45:52;;;;;;;0.00;0.00;;;2.20;99.90;;;;;;5024958;28;20053;-87
2021/01/08 04:48:17;;;;;;;0.00;0.00;;;2.20;99.90;;;;;;5008393;28;20039;-88
2021/01/08 04:50:45;;;;;;;0.00;0.00;;;2.20;99.90;;;;;;5025831;28;20486;-88
2021/01/08 04:53:10;;;;;;;0.00;0.00;;;2.20;99.90;;;;;;5024975;28;20038;-88
2021/01/08 04:55:37;;;;;;;0.00;0.00;;;2.20;99.90;;;;;;5024669;28;20042;-88
2021/01/08 04:58:07;;;;;;;0.00;0.00;;;2.20;99.90;;;;;;5024920;28;20042;-88
2021/01/08 05:00:34;;;;;;;0.00;0.00;;;2.20;99.90;;;;;;5024730;28;20101;-90
2021/01/08 05:03:00;;;;;;;0.00;0.00;;;2.20;99.90;;;;;;4992531;28;20118;-88
2021/01/08 05:05:26;;;;;;;0.00;0.00;;;2.20;99.90;;;;;;4992485;28;20121;-88
2021/01/08 05:07:51;;;;;;;0.00;0.00;;;2.20;99.90;;;;;;4992384;28;20046;-89
2021/01/08 05:10:17;;;;;;;0.00;0.00;;;2.20;99.90;;;;;;4992152;28;20077;-88
2021/01/08 05:12:43;;;;;;;0.00;0.00;;;2.20;99.90;;;;;;4992128;28;20034;-88
2021/01/08 05:15:16;;;;;;;1.55;1.45;;;2.20;99.90;;;;;;4992080;28;20042;-89
2021/01/08 05:17:43;;;;;;;0.00;0.00;;;2.20;99.90;;;;;;4992279;28;20056;-88
2021/01/08 05:20:10;;;;;;;0.00;0.00;;;2.20;99.90;;;;;;4991969;28;20044;-87
2021/01/08 05:22:38;;;;;;;0.00;0.00;;;2.20;99.90;;;;;;4991998;28;20045;-88
2021/01/08 05:25:08;;;;;;;0.00;0.00;;;2.20;99.90;;;;;;5008234;28;20097;-88
2021/01/08 05:27:34;;;;;;;0.00;0.00;;;2.10;99.90;;;;;;4991789;28;20041;-88
2021/01/08 05:30:15;;;;;;;0.00;0.00;;;2.20;99.90;;;;;;4991478;28;20087;-88
2021/01/08 05:32:45;;;;;;;0.00;0.00;;;2.10;99.90;;;;;;4980548;28;20050;-88
2021/01/08 05:35:15;;;;;;;0.00;0.00;;;2.20;99.90;;;;;;5006535;28;20094;-88
2021/01/08 05:37:48;;;;;;;;;;;2.20;99.90;;;;;;4989779;28;20034;-88
2021/01/08 05:40:14;;;;;;;0.00;0.00;;;2.20;99.90;;;;;;5007768;28;19972;-88
2021/01/08 05:43:09;;;;;;;0.00;0.00;;;2.20;99.90;;;;;;4992125;28;20041;-87
2021/01/08 05:45:35;;;;;;;0.00;0.00;;;2.20;99.90;;;;;;4983040;28;20068;-89
2021/01/08 05:48:03;;;;;;;0.00;0.00;;;2.20;99.90;;;;;;5011678;28;20069;-88
2021/01/08 05:50:29;;;;;;;0.00;0.00;;;2.20;99.90;;;;;;4991641;28;20038;-88
2021/01/08 05:52:58;;;;;;;0.00;0.00;;;2.20;99.90;;;;;;4991936;28;20039;-88
2021/01/08 05:55:26;;;;;;;0.00;0.00;;;2.20;99.90;;;;;;4975825;28;20042;-89
2021/01/08 05:57:53;;;;;;;0.00;0.00;;;2.20;99.90;;;;;;4975795;28;20521;-87
2021/01/08 06:00:28;;;;;;;0.00;0.00;;;2.30;99.90;;;;;;5002538;28;20034;-87
2021/01/08 06:02:54;;;;;;;0.00;0.00;;;2.30;99.90;;;;;;5027422;28;20560;-87
2021/01/08 06:05:20;;;;;;;0.00;0.00;;;2.30;99.90;;;;;;5010980;28;20038;-88
2021/01/08 06:07:50;;;;;;;0.00;0.00;;;2.20;99.90;;;;;;5010833;28;20104;-88
2021/01/08 06:10:19;;;;;;;0.30;0.30;;;2.30;99.90;;;;;;5003621;28;20046;-88
2021/01/08 06:12:46;;;;;;;0.00;0.00;;;2.30;99.90;;;;;;5006618;28;20038;-87
2021/01/08 06:15:15;;;;;;;0.00;0.00;;;2.20;99.90;;;;;;5024707;28;20041;-89
2021/01/08 06:17:47;;;;;;;0.00;0.00;;;2.30;99.90;;;;;;4992580;28;20046;-92
2021/01/08 06:20:14;;;;;;;0.00;0.00;;;2.20;99.90;;;;;;4990948;28;20084;-87
2021/01/08 06:22:41;;;;;;;0.00;0.00;;;2.30;99.90;;;;;;4991280;28;20246;-88
2021/01/08 06:25:09;;;;;;;0.00;0.00;;;2.30;99.90;;;;;;5007452;28;20483;-90
2021/01/08 06:27:36;;;;;;;0.00;0.00;;;2.30;99.90;;;;;;4991262;28;20049;-90
2021/01/08 06:30:08;;;;;;;0.00;0.00;;;2.30;99.90;;;;;;4993227;28;20045;-87
2021/01/08 06:32:34;;;;;;;0.00;0.00;;;2.30;99.90;;;;;;5026992;28;20042;-87
2021/01/08 06:35:07;;;;;;;0.00;0.00;;;2.30;99.90;;;;;;5010607;28;20125;-88
2021/01/08 06:37:37;;;;;;;0.00;0.00;;;2.30;99.90;;;;;;5010686;28;20050;-87
2021/01/08 06:40:04;;;;;;;0.00;0.00;;;2.30;99.90;;;;;;5026861;28;20034;-88
2021/01/08 06:42:30;;;;;;;0.00;0.00;;;2.30;99.90;;;;;;5026639;28;20045;-87
2021/01/08 06:44:56;;;;;;;0.00;0.00;;;2.30;99.90;;;;;;5026857;28;20406;-86
2021/01/08 06:47:23;;;;;;;0.00;0.00;;;2.30;99.90;;;;;;5026828;28;20033;-87
2021/01/08 06:49:54;;;;;;;0.00;0.00;;;2.30;99.90;;;;;;5026784;28;20041;-88
2021/01/08 06:52:23;;;;;;;0.00;0.00;;;2.30;99.90;;;;;;5026663;28;20049;-88
2021/01/08 06:54:54;;;;;;;0.00;0.00;;;2.30;99.90;;;;;;5010048;28;20117;-88
2021/01/08 06:57:24;;;;;;;0.00;0.00;;;2.30;99.90;;;;;;5027639;28;20046;-87
2021/01/08 07:00:01;;;;;;;0.00;0.00;;;2.30;99.90;;;;;;5028463;28;20065;-87
2021/01/08 07:02:30;;;;;;;0.00;0.00;;;2.30;99.90;;;;;;5028267;28;20065;-89
2021/01/08 07:04:56;;;;;;;0.00;0.00;;;2.30;99.90;;;;;;5026887;28;20038;-87
2021/01/08 07:07:27;;;;;;;0.00;0.00;;;2.30;99.90;;;;;;5026446;28;20048;-87
2021/01/08 07:09:57;;;;;;;0.00;0.00;;;2.30;99.90;;;;;;5026435;28;20053;-88
2021/01/08 07:12:24;;;;;;;0.00;0.00;;;2.30;99.90;;;;;;5026225;28;20038;-88
2021/01/08 07:14:50;;;;;;;0.00;0.00;;;2.40;99.90;;;;;;5026526;28;20042;-87
2021/01/08 07:17:16;;;;;;;0.00;0.00;;;2.30;99.90;;;;;;5026155;28;20088;-87
2021/01/08 07:19:43;;;;;;;0.00;0.00;;;2.30;99.90;;;;;;5009967;28;20042;-88
2021/01/08 07:22:20;;;;;;;0.00;0.00;;;2.30;99.90;;;;;;5025936;28;20034;-87
2021/01/08 07:24:49;;;;;;;0.00;0.00;;;2.30;99.90;;;;;;5026193;28;20056;-89
2021/01/08 07:27:16;;;;;;;0.00;0.00;;;2.30;99.90;;;;;;5009796;28;20040;-87
2021/01/08 07:29:48;;;;;;;0.00;0.00;;;2.30;99.90;;;;;;5026256;28;20050;-88
2021/01/08 07:32:13;;;;;;;0.00;0.00;;;2.30;99.90;;;;;;4990362;28;20114;-87
2021/01/08 07:34:39;;;;;;;0.00;0.00;;;2.30;99.90;;;;;;5006302;28;20506;-88
2021/01/08 07:37:05;;;;;;;0.00;0.00;;;2.40;99.90;;;;;;5005948;28;20050;-89
2021/01/08 07:39:39;;;;;;;0.00;0.00;;;2.30;99.90;;;;;;4995630;28;20041;-87
2021/01/08 07:42:31;;;;;;;0.00;0.00;;;2.30;99.90;;;;;;5005641;28;20046;-89
2021/01/08 07:44:57;;;;;;;0.00;0.00;;;2.30;99.90;;;;;;5024834;28;20046;-89
2021/01/08 07:47:24;;;;;;;0.00;0.00;;;2.30;99.90;;;;;;5008745;28;20088;-88
2021/01/08 07:50:10;;;;;;;0.00;0.00;;;2.30;99.90;;;;;;5024656;28;20038;-89
2021/01/08 07:52:44;;;;;;;0.00;0.00;;;2.30;99.90;;;;;;5008146;28;20109;-88
2021/01/08 07:55:45;;;;;;;0.00;0.00;;;2.30;99.90;;;;;;5021477;28;20064;-89
2021/01/08 07:58:10;;;;;;;0.00;0.00;;;2.30;99.90;;;;;;5024994;28;20521;-88
2021/01/08 08:00:36;;;;;;;0.00;0.00;;;2.30;99.90;;;;;;5024865;28;20038;-90
2021/01/08 08:03:01;;;;;;;0.00;0.00;;;2.30;99.90;;;;;;4992437;28;20505;-89
2021/01/08 08:05:31;;;;;;;0.00;0.00;;;2.40;99.90;;;;;;4991565;28;20089;-89
2021/01/08 08:07:59;;;;;;;0.00;0.00;;;2.30;99.90;;;;;;4990310;28;20051;-89
2021/01/08 08:10:26;;;;;;;0.00;0.00;;;2.40;99.90;;;;;;4991684;28;20106;-89
2021/01/08 08:12:53;;;;;;;0.00;0.00;;;2.40;99.90;;;;;;4992136;28;20042;-88
2021/01/08 08:15:20;;;;;;;0.00;0.00;;;2.40;99.90;;;;;;4992669;28;20026;-90
2021/01/08 08:17:46;;;;;;;0.00;0.00;;;2.40;99.90;;;;;;4988914;28;20073;-88
2021/01/08 08:20:23;;;;;;;0.00;0.00;;;2.40;99.90;;;;;;5008100;28;20068;-89
2021/01/08 08:22:52;;;;;;;0.00;0.00;;;2.40;99.90;;;;;;4993647;28;20037;-89
2021/01/08 08:25:28;;;;;;;0.00;0.00;;;2.40;99.90;;;;;;5007823;28;20037;-89
2021/01/08 08:27:55;;;;;;;0.00;0.00;;;2.40;99.90;;;;;;5007864;28;20042;-88
2021/01/08 08:30:22;;;;;;;0.00;0.00;;;2.40;99.90;;;;;;5007836;28;20073;-88
2021/01/08 08:32:48;;;;;;;0.00;0.00;;;2.40;99.90;;;;;;4991447;28;20040;-89
2021/01/08 08:35:15;;;;;;;0.00;0.00;;;2.40;99.90;;;;;;4991306;28;20042;-89
2021/01/08 08:37:51;;;;;;;0.00;0.00;;;2.40;99.90;;;;;;5002702;28;20501;-88
2021/01/08 08:40:20;;;;;;;0.00;0.00;;;2.40;99.90;;;;;;4991806;28;20046;-89
2021/01/08 08:42:50;;;;;;;0.00;0.00;;;2.50;99.90;;;;;;4990875;28;20069;-88
2021/01/08 08:45:35;;;;;;;0.00;0.00;;;2.50;99.90;;;;;;5010750;28;20045;-88
2021/01/08 08:48:05;;;;;;;0.00;0.00;;;2.50;99.90;;;;;;4994119;28;20042;-88
2021/01/08 08:50:41;;;;;;;0.00;0.00;;;2.50;99.90;;;;;;4996484;28;20049;-88
2021/01/08 08:53:11;;;;;;;0.00;0.00;;;2.50;99.90;;;;;;4992474;28;20034;-88
2021/01/08 08:55:37;;;;;;;0.00;0.00;;;2.50;99.90;;;;;;4990855;28;20054;-88
2021/01/08 08:58:04;;;;;;;0.00;0.00;;;2.50;99.90;;;;;;4990548;28;20403;-88
2021/01/08 09:00:31;;;;;;;0.00;0.00;;;2.60;99.90;;;;;;5006893;28;20176;-88
2021/01/08 09:02:57;;;;;;;0.00;0.00;;;2.60;99.90;;;;;;4993098;28;20132;-89
2021/01/08 09:05:33;;;;;;;0.00;0.00;;;2.60;99.90;;;;;;5007166;28;20038;-89
2021/01/08 09:08:15;;;;;;;0.00;0.00;;;2.60;99.90;;;;;;4990541;28;20038;-88
2021/01/08 09:10:49;;;;;;;0.00;0.00;;;2.60;99.90;;;;;;4992327;28;20037;-88
2021/01/08 09:13:18;;;;;;;0.00;0.00;;;2.60;99.90;;;;;;5008022;28;20040;-89
2021/01/08 09:16:04;;;;;;;0.00;0.00;;;2.60;99.90;;;;;;4991572;28;20046;-89
2021/01/08 09:18:48;;;;;;;0.00;0.00;;;2.60;99.90;;;;;;4995815;28;20054;-88
2021/01/08 09:21:27;;;;;;;0.00;0.00;;;2.60;99.90;;;;;;5009685;28;20034;-87
2021/01/08 09:23:54;;;;;;;0.00;0.00;;;2.60;99.90;;;;;;4984886;28;20069;-87
2021/01/08 09:26:21;;;;;;;0.00;0.00;;;2.70;99.90;;;;;;5012711;28;20041;-87
2021/01/08 09:28:52;;;;;;;0.00;0.00;;;2.70;99.90;;;;;;5031228;28;20037;-87
2021/01/08 09:31:20;;;;;;;0.00;0.00;;;2.70;99.90;;;;;;4995705;28;20037;-90
2021/01/08 09:33:58;;;;;;;0.00;0.00;;;2.70;99.90;;;;;;4995713;28;20398;-90
2021/01/08 09:36:33;;;;;;;0.00;0.00;;;2.70;99.90;;;;;;5008136;28;20057;-89
2021/01/08 09:39:09;;;;;;;0.00;0.00;;;2.80;99.90;;;;;;4986902;28;20096;-89
2021/01/08 09:41:40;;;;;;;0.00;0.00;;;2.80;99.90;;;;;;5008102;28;20045;-89
2021/01/08 09:44:07;;;;;;;0.00;0.00;;;2.80;99.90;;;;;;4996554;28;20166;-91
2021/01/08 09:46:59;;;;;;;0.00;0.00;;;2.70;99.90;;;;;;4996282;28;20045;-89
2021/01/08 09:49:42;;;;;;;0.00;0.00;;;2.80;99.90;;;;;;4996395;28;20041;-89
2021/01/08 09:52:10;;;;;;;0.00;0.00;;;2.80;99.90;;;;;;4991296;28;20034;-89
2021/01/08 09:54:49;;;;;;;0.00;0.00;;;2.80;99.90;;;;;;4984844;28;20053;-88
2021/01/08 09:57:25;;;;;;;0.00;0.00;;;2.80;99.90;;;;;;4992231;28;20045;-88
2021/01/08 10:00:26;;;;;;;0.00;0.00;;;2.80;99.90;;;;;;4996481;28;20046;-89
2021/01/08 10:02:51;;;;;;;0.00;0.00;;;2.80;99.90;;;;;;4998598;28;20062;-88
2021/01/08 10:05:20;;;;;;;0.00;0.00;;;2.80;99.90;;;;;;4999929;28;20124;-89
2021/01/08 10:07:47;;;;;;;0.00;0.00;;;2.90;99.90;;;;;;5024332;28;20054;-88
2021/01/08 10:10:14;;;;;;;0.00;0.00;;;3.00;99.90;;;;;;4997082;28;20053;-88
2021/01/08 10:12:50;;;;;;;0.55;0.55;;;3.00;99.90;;;;;;5027652;28;20042;-88
2021/01/08 10:15:17;;;;;;;0.10;0.03;;;3.10;99.90;;;;;;5031858;28;20037;-89
2021/01/08 10:17:47;;;;;;;0.00;0.00;;;3.00;99.90;;;;;;4998146;28;20076;-89
2021/01/08 10:20:17;;;;;;;0.00;0.00;;;3.10;99.90;;;;;;5013550;28;20034;-89
2021/01/08 10:22:50;;;;;;;0.00;0.00;;;3.00;99.90;;;;;;5026741;28;20225;-89
2021/01/08 10:25:30;;;;;;;0.00;0.00;;;3.10;99.90;;;;;;4999131;28;20033;-89
2021/01/08 10:28:10;;;;;;;0.00;0.00;;;3.20;99.90;;;;;;5013283;28;20053;-89
2021/01/08 10:30:36;;;;;;;;;;;3.20;99.90;;;;;;5013465;28;20093;-88
2021/01/08 10:33:02;;;;;;;0.00;0.00;;;3.30;99.90;;;;;;5030352;28;19912;-89
2021/01/08 10:35:27;;;;;;;0.00;0.00;;;3.30;99.90;;;;;;5014026;28;20046;-88
2021/01/08 10:37:53;;;;;;;0.00;0.00;;;3.30;99.90;;;;;;5011866;28;20158;-89
2021/01/08 10:40:19;;;;;;;0.00;0.00;;;3.40;99.90;;;;;;5000035;28;20046;-89
2021/01/08 10:42:44;;;;;;;0.00;0.00;;;3.40;99.90;;;;;;5026948;28;20045;-88
2021/01/08 10:45:10;;;;;;;0.00;0.00;;;3.30;99.90;;;;;;5016876;28;20040;-89
2021/01/08 10:47:36;;;;;;;0.00;0.00;;;3.40;99.90;;;;;;4992798;28;20042;-88
2021/01/08 10:50:02;;;;;;;0.00;0.00;;;3.40;99.90;;;;;;5008613;28;20046;-89
2021/01/08 10:52:28;;;;;;;0.00;0.00;;;3.30;99.90;;;;;;4992321;28;20042;-88
2021/01/08 10:54:54;;;;;;;0.00;0.00;;;3.40;99.90;;;;;;5009044;28;20048;-88
2021/01/08 10:57:20;;;;;;;0.00;0.00;;;3.30;99.90;;;;;;4993113;28;20037;-89
2021/01/08 10:59:46;;;;;;;0.00;0.00;;;3.40;99.90;;;;;;5005695;28;20438;-89
2021/01/08 11:02:12;;;;;;;0.28;0.05;;;3.30;99.90;;;;;;5000194;28;20069;-89
2021/01/08 11:04:41;;;;;;;0.00;0.00;;;3.30;99.90;;;;;;5026733;28;20120;-89
2021/01/08 11:07:09;;;;;;;0.00;0.00;;;3.30;99.90;;;;;;4984724;28;20184;-89
2021/01/08 11:09:34;;;;;;;0.00;0.00;;;3.20;99.90;;;;;;4997340;28;20034;-89
2021/01/08 11:12:00;;;;;;;0.00;0.00;;;3.20;99.90;;;;;;4993995;28;20041;-89
2021/01/08 11:14:26;;;;;;;0.00;0.00;;;3.20;99.90;;;;;;5008450;28;20512;-89
2021/01/08 11:16:51;;;;;;;0.00;0.00;;;3.20;99.90;;;;;;4995593;28;20058;-89
2021/01/08 11:19:17;;;;;;;0.00;0.00;;;3.30;99.90;;;;;;5008774;28;20157;-89
2021/01/08 11:21:43;;;;;;;2.83;0.35;;;3.40;99.90;;;;;;4992372;28;20060;-89
2021/01/08 11:24:09;;;;;;;0.22;0.20;;;3.20;99.90;;;;;;4992302;28;20038;-89
2021/01/08 11:26:34;;;;;;;0.00;0.00;;;3.20;99.90;;;;;;5009038;28;20061;-92
2021/01/08 11:29:00;;;;;;;0.00;0.00;;;3.20;99.90;;;;;;5009624;28;20041;-89
2021/01/08 11:31:44;;;;;;;0.00;0.00;;;3.20;99.90;;;;;;4992069;28;20103;-91
2021/01/08 11:34:11;;;;;;;0.00;0.00;;;3.30;99.90;;;;;;5008944;28;20169;-89
2021/01/08 11:36:38;;;;;;;0.25;0.25;;;3.30;99.90;;;;;;5008876;28;20060;-89
2021/01/08 11:39:05;;;;;;;0.00;0.00;;;3.40;99.90;;;;;;4999798;28;20099;-89
2021/01/08 11:41:31;;;;;;;0.00;0.00;;;3.40;99.90;;;;;;4991964;28;20042;-89
2021/01/08 11:43:57;;;;;;;0.00;0.00;;;3.30;99.90;;;;;;5008854;28;20105;-89
2021/01/08 11:46:23;;;;;;;0.00;0.00;;;3.40;99.90;;;;;;5009099;28;20061;-89
2021/01/08 11:48:52;;;;;;;0.00;0.00;;;3.50;99.90;;;;;;5009889;28;20493;-89
2021/01/08 11:51:22;;;;;;;0.00;0.00;;;3.50;99.90;;;;;;5008106;28;20057;-89
2021/01/08 11:53:48;;;;;;;0.28;0.28;;;3.50;99.90;;;;;;4989097;28;20045;-89
2021/01/08 11:56:15;;;;;;;0.00;0.00;;;3.50;99.90;;;;;;4992969;28;20108;-89
2021/01/08 11:58:45;;;;;;;0.00;0.00;;;3.40;99.90;;;;;;4992959;28;20110;-88
2021/01/08 12:01:11;;;;;;;0.00;0.00;;;3.40;99.90;;;;;;5007372;28;20046;-89
2021/01/08 12:03:38;;;;;;;0.00;0.00;;;3.50;99.90;;;;;;5008921;28;20049;-89
2021/01/08 12:06:05;;;;;;;0.00;0.00;;;3.50;99.90;;;;;;4992946;28;20459;-89
2021/01/08 12:08:31;;;;;;;0.00;0.00;;;3.40;99.90;;;;;;4996767;28;20042;-90
2021/01/08 12:10:58;;;;;;;0.00;0.00;;;3.50;99.90;;;;;;4992783;28;20498;-89
2021/01/08 12:13:24;;;;;;;0.00;0.00;;;3.40;99.90;;;;;;4992967;28;20048;-89
2021/01/08 12:15:50;;;;;;;0.00;0.00;;;3.40;99.90;;;;;;5001584;28;20081;-89
2021/01/08 12:18:24;;;;;;;0.47;0.00;;;3.40;99.90;;;;;;4995357;28;20069;-91
2021/01/08 12:20:50;;;;;;;0.00;0.00;;;3.30;99.90;;;;;;5008017;28;20044;-89
2021/01/08 12:23:16;;;;;;;0.00;0.00;;;3.40;99.90;;;;;;4990563;28;20038;-90
2021/01/08 12:25:42;;;;;;;0.00;0.00;;;3.30;99.90;;;;;;5009740;28;20511;-89
2021/01/08 12:28:11;;;;;;;0.00;0.00;;;3.20;99.90;;;;;;4995061;28;20034;-89
2021/01/08 12:30:38;;;;;;;0.00;0.00;;;3.20;99.90;;;;;;4993143;28;20193;-89
2021/01/08 12:33:06;;;;;;;0.00;0.00;;;3.20;99.90;;;;;;4994262;28;20134;-89
2021/01/08 12:35:32;;;;;;;0.00;0.00;;;3.30;99.90;;;;;;4993479;28;20049;-89
2021/01/08 12:37:59;;;;;;;0.00;0.00;;;3.30;99.90;;;;;;5001440;28;20474;-89
2021/01/08 12:40:25;;;;;;;0.00;0.00;;;3.40;99.90;;;;;;4980285;28;20177;-89
2021/01/08 12:42:55;;;;;;;0.00;0.00;;;3.40;99.90;;;;;;4993200;28;20498;-89
2021/01/08 12:45:24;;;;;;;0.00;0.00;;;3.40;99.90;;;;;;4994239;28;20072;-90
2021/01/08 12:47:50;;;;;;;0.00;0.00;;;3.30;99.90;;;;;;5000251;28;20070;-90
2021/01/08 12:50:19;;;;;;;0.00;0.00;;;3.20;99.90;;;;;;5009403;28;20069;-89
2021/01/08 12:52:45;;;;;;;0.00;0.00;;;3.30;99.90;;;;;;4993004;28;20073;-90
2021/01/08 12:55:12;;;;;;;0.00;0.00;;;3.20;99.90;;;;;;4996705;28;20038;-89
2021/01/08 12:57:38;;;;;;;0.00;0.00;;;3.30;99.90;;;;;;4997760;28;20056;-89
2021/01/08 13:00:05;;;;;;;0.00;0.00;;;3.30;99.90;;;;;;4997157;28;20045;-89
2021/01/08 13:02:31;;;;;;;0.00;0.00;;;3.30;99.90;;;;;;5001633;28;20143;-89
2021/01/08 13:04:56;;;;;;;0.00;0.00;;;3.40;99.90;;;;;;5016296;28;20042;-89
2021/01/08 13:07:22;;;;;;;0.25;0.20;;;3.50;99.90;;;;;;5015182;28;20053;-91